Time;durP1;ratioP1;P1;durP2;ratioP2;P2;SDS_P1;SDS_P2;PMS_P1;PMS_P2;Temp;Humidity;BMP_temperature;BMP_pressure;BME280_temperature;BME280_humidity;BME280_pressure;Samples;Min_cycle;Max_cycle;Signal;HPM_P1;HPM_P2
2023/08/16 00:02:23;;;;;;;1.73;0.90;;;;;;;24.82;52.16;101150.19;5066718;28;20032;-55
2023/08/16 00:04:50;;;;;;;1.10;1.00;;;;;;;24.75;52.18;101156.84;5071139;28;20055;-56
2023/08/16 00:07:16;;;;;;;2.92;1.30;;;;;;;24.68;52.45;101152.84;5071552;28;20107;-55
2023/08/16 00:09:43;;;;;;;2.53;1.02;;;;;;;24.58;53.31;101150.25;5071625;28;20037;-55
2023/08/16 00:12:09;;;;;;;1.63;1.00;;;;;;;24.30;54.02;101151.91;5073416;28;20032;-56
2023/08/16 00:14:35;;;;;;;2.50;1.27;;;;;;;23.91;54.89;101145.44;5091972;28;20393;-55
2023/08/16 00:17:02;;;;;;;2.05;1.00;;;;;;;24.18;54.55;101147.66;5091635;28;20028;-56
2023/08/16 00:19:29;;;;;;;2.28;1.02;;;;;;;23.93;54.56;101147.88;5092178;28;20024;-57
2023/08/16 00:21:55;;;;;;;1.73;1.10;;;;;;;23.66;55.00;101142.97;5079950;28;20044;-55
2023/08/16 00:24:21;;;;;;;1.20;1.08;;;;;;;23.76;55.44;101134.66;5056335;28;20095;-54
2023/08/16 00:26:48;;;;;;;5.55;1.60;;;;;;;23.81;54.88;101142.81;5051374;28;20510;-56
2023/08/16 00:29:14;;;;;;;2.15;1.40;;;;;;;23.80;54.70;101141.19;5053746;28;20087;-56
2023/08/16 00:31:40;;;;;;;1.35;1.10;;;;;;;23.93;55.34;101137.78;5071357;28;20033;-56
2023/08/16 00:34:06;;;;;;;1.30;1.20;;;;;;;23.66;54.72;101135.56;5068193;28;20025;-53
2023/08/16 00:36:33;;;;;;;2.42;1.25;;;;;;;23.62;55.07;101122.72;5071227;28;20029;-55
2023/08/16 00:38:59;;;;;;;3.03;1.58;;;;;;;23.67;56.00;101122.72;5071467;28;20036;-56
2023/08/16 00:41:25;;;;;;;2.20;1.33;;;;;;;23.83;55.63;101126.94;5071763;28;20417;-56
2023/08/16 00:43:51;;;;;;;2.42;1.30;;;;;;;23.85;55.36;101122.00;5068044;28;20025;-57
2023/08/16 00:46:18;;;;;;;1.40;1.10;;;;;;;23.64;55.86;101118.63;5072379;28;20064;-60
2023/08/16 00:48:45;;;;;;;4.57;1.23;;;;;;;23.76;56.21;101123.72;5089916;28;20103;-58
2023/08/16 00:51:12;;;;;;;2.10;1.33;;;;;;;23.27;57.23;101127.38;5071236;28;20390;-56
2023/08/16 00:53:40;;;;;;;1.60;1.50;;;;;;;23.06;58.44;101123.16;5073320;28;20107;-59
2023/08/16 00:56:07;;;;;;;2.85;1.80;;;;;;;22.86;59.20;101119.41;5075171;28;20035;-50
2023/08/16 00:58:33;;;;;;;2.95;1.65;;;;;;;22.87;59.38;101128.41;5075245;28;21730;-52
2023/08/16 01:00:59;;;;;;;1.95;1.70;;;;;;;22.72;59.99;101121.13;5073073;28;20040;-52
2023/08/16 01:03:26;;;;;;;2.42;1.50;;;;;;;22.84;60.31;101118.88;5073227;28;20482;-52
2023/08/16 01:05:52;;;;;;;3.38;1.67;;;;;;;22.76;60.24;101130.34;5073137;28;20117;-50
2023/08/16 01:08:19;;;;;;;2.95;1.52;;;;;;;22.57;60.70;101122.00;5075514;28;20510;-53
2023/08/16 01:10:58;;;;;;;2.47;1.33;;;;;;;22.66;60.76;101128.53;5067771;28;20056;-54
2023/08/16 01:13:56;;;;;;;1.48;1.38;;;;;;;22.57;60.98;101119.28;5070742;28;20119;-55
2023/08/16 01:16:25;;;;;;;3.85;1.77;;;;;;;22.40;61.50;101114.16;5074753;28;20055;-66
2023/08/16 01:18:52;;;;;;;3.22;1.70;;;;;;;22.63;61.50;101118.16;5066641;28;20040;-53
2023/08/16 01:21:21;;;;;;;3.03;1.88;;;;;;;22.51;61.37;101111.41;5054763;28;20087;-56
2023/08/16 01:23:56;;;;;;;2.85;1.95;;;;;;;22.48;61.69;101120.13;5056624;28;20112;-56
2023/08/16 01:26:22;;;;;;;4.88;1.80;;;;;;;22.17;61.86;101120.22;5054692;28;20144;-52
2023/08/16 01:28:49;;;;;;;2.17;1.60;;;;;;;22.22;62.35;101117.50;5068059;28;20052;-48
2023/08/16 01:31:16;;;;;;;4.38;2.20;;;;;;;22.32;62.34;101120.19;5073328;28;20029;-54
2023/08/16 01:33:42;;;;;;;2.42;1.70;;;;;;;22.23;62.66;101118.31;5071440;28;20035;-54
2023/08/16 01:36:09;;;;;;;7.32;2.72;;;;;;;22.00;63.09;101119.69;5060342;28;20029;-53
2023/08/16 01:38:35;;;;;;;3.45;2.42;;;;;;;21.98;63.42;101119.13;5054352;28;20056;-52
2023/08/16 01:41:14;;;;;;;3.95;2.97;;;;;;;21.83;63.86;101112.63;5068810;28;20471;-53
2023/08/16 01:43:44;;;;;;;4.25;3.05;;;;;;;21.62;65.03;101119.19;5073054;28;20028;-52
2023/08/16 01:46:10;;;;;;;5.85;3.63;;;;;;;21.64;65.26;101111.53;5069694;28;20035;-52
2023/08/16 01:48:38;;;;;;;5.07;3.45;;;;;;;21.44;65.92;101117.00;5073167;28;20678;-52
2023/08/16 01:51:06;;;;;;;5.05;3.72;;;;;;;21.53;65.92;101115.38;5065861;28;20155;-56
2023/08/16 01:53:34;;;;;;;5.55;4.30;;;;;;;21.34;66.16;101110.47;5069109;28;20025;-56
2023/08/16 01:56:00;;;;;;;4.88;4.13;;;;;;;21.25;66.72;101122.94;5063691;28;20606;-56
2023/08/16 01:58:27;;;;;;;7.43;4.95;;;;;;;20.86;68.68;101117.13;5061011;28;20036;-56
2023/08/16 02:00:53;;;;;;;6.13;4.50;;;;;;;21.08;67.41;101122.38;5069454;28;20100;-51
2023/08/16 02:03:19;;;;;;;6.00;4.53;;;;;;;20.98;67.87;101133.22;5070236;28;20032;-52
2023/08/16 02:05:46;;;;;;;6.28;4.72;;;;;;;20.92;67.47;101128.84;5072353;28;20474;-51
2023/08/16 02:08:12;;;;;;;8.18;4.90;;;;;;;20.96;67.38;101128.06;5062432;28;20036;-53
2023/08/16 02:10:38;;;;;;;6.13;4.50;;;;;;;21.03;67.92;101134.06;5079728;28;20482;-50
2023/08/16 02:13:05;;;;;;;6.72;5.35;;;;;;;20.97;68.12;101129.69;5070762;28;20028;-54
2023/08/16 02:15:31;;;;;;;7.07;5.57;;;;;;;20.87;68.80;101134.28;5071684;28;20459;-58
2023/08/16 02:17:58;;;;;;;5.25;4.53;;;;;;;20.50;70.02;101141.50;5072960;28;20481;-56
2023/08/16 02:20:24;;;;;;;4.55;4.15;;;;;;;20.28;71.34;101144.34;5072466;28;20036;-56
2023/08/16 02:22:50;;;;;;;5.05;4.05;;;;;;;20.23;72.09;101144.31;5072549;28;20035;-56
2023/08/16 02:25:17;;;;;;;7.00;4.32;;;;;;;20.04;72.18;101149.38;5072428;28;20029;-57
2023/08/16 02:27:43;;;;;;;5.15;3.78;;;;;;;19.99;72.10;101149.31;5072198;28;20039;-51
2023/08/16 02:30:10;;;;;;;5.13;2.78;;;;;;;20.20;71.99;101146.72;5072124;28;20036;-55
2023/08/16 02:32:36;;;;;;;5.28;3.58;;;;;;;20.16;72.91;101161.94;5072118;28;20115;-54
2023/08/16 02:35:03;;;;;;;4.80;3.85;;;;;;;19.99;73.70;101162.91;5072016;28;20121;-59
2023/08/16 02:37:30;;;;;;;4.47;3.15;;;;;;;20.02;73.88;101186.84;5072797;28;20100;-55
2023/08/16 02:39:57;;;;;;;4.88;3.50;;;;;;;20.10;73.37;101179.25;5072928;28;20024;-53
2023/08/16 02:42:23;;;;;;;5.78;3.70;;;;;;;19.96;74.11;101181.63;5070624;28;20032;-54
2023/08/16 02:44:50;;;;;;;3.63;3.33;;;;;;;19.96;74.19;101182.44;5061898;28;20523;-55
2023/08/16 02:47:16;;;;;;;4.57;3.50;;;;;;;19.69;75.56;101185.19;5058133;28;20041;-51
2023/08/16 02:49:42;;;;;;;5.82;3.60;;;;;;;19.55;76.87;101191.31;5053498;28;20044;-55
2023/08/16 02:52:08;;;;;;;4.50;3.83;;;;;;;19.46;77.22;101191.75;5067078;28;20033;-54
2023/08/16 02:54:35;;;;;;;4.07;3.53;;;;;;;19.48;77.82;101199.63;5073360;28;20396;-54
2023/08/16 02:57:01;;;;;;;6.10;4.85;;;;;;;19.26;78.34;101199.69;5073070;28;20055;-53
2023/08/16 02:59:27;;;;;;;5.63;4.63;;;;;;;19.25;78.41;101195.31;5073232;28;20052;-54
2023/08/16 03:01:54;;;;;;;6.78;5.47;;;;;;;19.05;79.38;101195.94;5072151;28;20035;-53
2023/08/16 03:04:21;;;;;;;5.50;4.70;;;;;;;18.98;80.34;101206.97;5073182;28;20032;-53
2023/08/16 03:06:47;;;;;;;5.90;4.85;;;;;;;18.91;80.84;101205.50;5070348;28;20498;-53
2023/08/16 03:09:13;;;;;;;8.73;5.53;;;;;;;18.93;81.04;101197.94;5073112;28;20020;-52
2023/08/16 03:11:40;;;;;;;7.00;5.80;;;;;;;18.64;82.10;101200.81;5073074;28;20043;-54
2023/08/16 03:14:06;;;;;;;9.60;6.63;;;;;;;18.43;83.45;101204.28;5054248;28;20520;-55
2023/08/16 03:16:32;;;;;;;7.85;6.22;;;;;;;18.31;84.72;101211.72;5071858;28;20125;-53
2023/08/16 03:19:00;;;;;;;6.85;5.35;;;;;;;18.35;85.09;101207.44;5068936;28;20029;-54
2023/08/16 03:21:26;;;;;;;8.45;6.78;;;;;;;18.04;85.65;101206.97;5062013;28;20051;-54
2023/08/16 03:23:52;;;;;;;8.32;5.85;;;;;;;18.07;86.44;101211.09;5071587;28;20028;-55
2023/08/16 03:26:18;;;;;;;8.52;5.78;;;;;;;18.06;86.76;101218.38;5070872;28;20032;-52
2023/08/16 03:28:45;;;;;;;9.55;6.47;;;;;;;18.10;86.53;101227.66;5067519;28;20039;-53
2023/08/16 03:31:13;;;;;;;9.05;7.50;;;;;;;17.81;87.82;101218.78;5054808;28;20045;-54
2023/08/16 03:33:40;;;;;;;8.88;6.63;;;;;;;17.82;88.29;101225.00;5071900;28;20016;-54
2023/08/16 03:36:07;;;;;;;7.88;6.72;;;;;;;17.84;88.56;101220.19;5071189;28;20024;-53
2023/08/16 03:38:33;;;;;;;10.15;6.97;;;;;;;17.79;89.63;101220.91;5057555;28;20044;-54
2023/08/16 03:40:59;;;;;;;7.28;6.18;;;;;;;17.80;89.33;101216.31;5066461;28;20027;-53
2023/08/16 03:43:28;;;;;;;11.07;7.60;;;;;;;17.80;89.42;101219.03;5070345;28;20020;-54
2023/08/16 03:45:55;;;;;;;10.18;7.43;;;;;;;17.85;89.09;101224.53;5071713;28;20343;-53
2023/08/16 03:48:21;;;;;;;9.98;7.47;;;;;;;17.64;90.22;101221.44;5071773;28;20036;-52
2023/08/16 03:50:47;;;;;;;8.07;6.38;;;;;;;17.67;89.89;101222.84;5071690;28;20024;-52
2023/08/16 03:53:13;;;;;;;8.70;6.93;;;;;;;17.51;91.46;101227.16;5071304;28;20032;-53
2023/08/16 03:55:40;;;;;;;8.77;6.68;;;;;;;17.54;90.98;101223.94;5066635;28;20502;-54
2023/08/16 03:58:06;;;;;;;7.90;6.18;;;;;;;17.64;90.70;101236.84;5065529;28;20043;-53
2023/08/16 04:00:32;;;;;;;7.03;5.85;;;;;;;17.52;91.00;101234.19;5060710;28;20513;-53
2023/08/16 04:02:59;;;;;;;7.80;6.03;;;;;;;17.53;91.96;101232.31;5056143;28;20033;-53
2023/08/16 04:05:25;;;;;;;6.72;5.30;;;;;;;17.51;92.44;101235.28;5071660;28;20505;-51
2023/08/16 04:07:51;;;;;;;9.23;5.82;;;;;;;17.50;93.02;101235.53;5072169;28;20545;-53
2023/08/16 04:10:17;;;;;;;6.07;4.65;;;;;;;17.44;93.58;101237.31;5072227;28;20417;-53
2023/08/16 04:12:44;;;;;;;6.72;5.07;;;;;;;17.44;92.81;101240.03;5071779;28;20027;-52
2023/08/16 04:15:10;;;;;;;5.20;4.35;;;;;;;17.49;92.77;101239.28;5071661;28;20040;-51
2023/08/16 04:17:37;;;;;;;5.40;4.25;;;;;;;17.37;93.88;101247.44;5068953;28;20502;-53
2023/08/16 04:20:07;;;;;;;4.95;4.00;;;;;;;17.30;94.21;101249.47;5068054;28;20036;-53
2023/08/16 04:22:35;;;;;;;5.70;4.30;;;;;;;17.24;94.34;101245.03;5071639;28;20021;-53
2023/08/16 04:25:01;;;;;;;6.80;4.57;;;;;;;17.18;94.86;101243.28;5053601;28;20356;-53
2023/08/16 04:27:28;;;;;;;7.28;5.97;;;;;;;17.29;94.10;101250.53;5070464;28;20159;-53
2023/08/16 04:29:54;;;;;;;6.85;5.05;;;;;;;17.05;95.47;101253.31;5071325;28;20021;-55
2023/08/16 04:32:20;;;;;;;20.88;18.60;;;;;;;17.10;95.24;101245.31;5064798;28;20033;-53
2023/08/16 04:34:46;;;;;;;21.55;19.15;;;;;;;17.06;96.29;101244.13;5061270;28;20025;-53
2023/08/16 04:37:12;;;;;;;6.72;4.88;;;;;;;17.00;96.80;101249.69;5071534;28;20044;-53
2023/08/16 04:39:39;;;;;;;3.28;2.97;;;;;;;17.01;96.57;101257.56;5071486;28;20021;-53
2023/08/16 04:42:05;;;;;;;3.67;3.30;;;;;;;17.05;96.74;101258.72;5071524;28;20029;-53
2023/08/16 04:44:31;;;;;;;3.20;2.35;;;;;;;16.93;97.52;101265.19;5071616;28;20052;-52
2023/08/16 04:46:57;;;;;;;2.85;2.03;;;;;;;16.78;98.88;101265.72;5071577;28;20052;-52
2023/08/16 04:49:26;;;;;;;4.22;2.50;;;;;;;16.78;98.90;101277.34;5063269;28;20021;-53
2023/08/16 04:51:53;;;;;;;4.57;2.70;;;;;;;16.78;99.27;101277.34;5069957;28;20645;-53
2023/08/16 04:54:20;;;;;;;4.03;2.72;;;;;;;16.85;99.21;101269.91;5071447;28;20078;-54
2023/08/16 04:56:46;;;;;;;5.95;3.67;;;;;;;16.89;98.77;101264.88;5068274;28;20043;-52
2023/08/16 04:59:12;;;;;;;5.13;3.60;;;;;;;16.81;99.57;101267.91;5067480;28;20435;-52
2023/08/16 05:01:38;;;;;;;3.63;2.60;;;;;;;16.85;99.06;101269.91;5070055;28;20037;-53
2023/08/16 05:04:08;;;;;;;2.95;2.28;;;;;;;16.79;99.33;101276.28;5071265;28;20064;-53
2023/08/16 05:06:35;;;;;;;3.85;2.80;;;;;;;16.63;100.00;101283.19;5070039;28;20111;-54
2023/08/16 05:09:02;;;;;;;4.35;2.92;;;;;;;16.51;100.00;101279.66;5070356;28;20033;-53
2023/08/16 05:11:29;;;;;;;5.07;3.72;;;;;;;16.40;100.00;101277.78;5069943;28;20025;-53
2023/08/16 05:13:56;;;;;;;5.47;3.53;;;;;;;16.45;100.00;101285.19;5070841;28;20029;-53
2023/08/16 05:16:22;;;;;;;4.80;3.20;;;;;;;16.38;100.00;101279.91;5069255;28;20032;-51
2023/08/16 05:18:49;;;;;;;5.68;3.63;;;;;;;16.37;100.00;101283.63;5070388;28;20033;-53
2023/08/16 05:21:15;;;;;;;4.43;3.30;;;;;;;16.35;100.00;101283.88;5071331;28;20071;-53
2023/08/16 05:23:41;;;;;;;4.85;3.63;;;;;;;16.34;100.00;101286.81;5069217;28;20102;-53
2023/08/16 05:26:07;;;;;;;4.35;3.58;;;;;;;16.39;100.00;101289.63;5071180;28;20032;-52
2023/08/16 05:28:34;;;;;;;7.35;3.75;;;;;;;16.18;100.00;101285.63;5058998;28;20145;-54
2023/08/16 05:31:10;;;;;;;3.75;2.40;;;;;;;16.21;100.00;101289.72;5048129;28;20471;-53
2023/08/16 05:33:37;;;;;;;3.85;2.38;;;;;;;16.27;100.00;101292.34;5051152;28;20090;-54
2023/08/16 05:36:04;;;;;;;2.35;1.58;;;;;;;16.19;100.00;101289.13;5051157;28;20025;-55
2023/08/16 05:38:31;;;;;;;5.22;1.75;;;;;;;16.24;100.00;101289.25;5053127;28;20071;-53
2023/08/16 05:40:58;;;;;;;1.98;1.50;;;;;;;16.18;100.00;101295.59;5061120;28;20098;-52
2023/08/16 05:43:24;;;;;;;2.78;1.30;;;;;;;16.05;100.00;101292.06;5074219;28;20070;-53
2023/08/16 05:45:51;;;;;;;1.10;0.73;;;;;;;16.07;100.00;101300.72;5073440;28;20032;-53
2023/08/16 05:48:17;;;;;;;0.60;0.55;;;;;;;16.15;100.00;101301.44;5074774;28;20017;-52
2023/08/16 05:50:43;;;;;;;0.90;0.50;;;;;;;16.14;100.00;101289.81;5074413;28;20051;-52
2023/08/16 05:53:10;;;;;;;0.65;0.65;;;;;;;16.20;99.56;101283.50;5074331;28;20056;-53
2023/08/16 05:55:36;;;;;;;0.80;0.52;;;;;;;16.15;100.00;101282.53;5072341;28;20060;-53
2023/08/16 05:58:03;;;;;;;0.80;0.57;;;;;;;16.25;100.00;101289.03;5073156;28;20135;-52
2023/08/16 06:00:30;;;;;;;1.33;0.70;;;;;;;16.24;100.00;101290.09;5072350;28;20049;-54
2023/08/16 06:02:56;;;;;;;2.67;0.60;;;;;;;16.32;99.51;101297.00;5060720;28;20028;-53
2023/08/16 06:05:23;;;;;;;0.82;0.70;;;;;;;16.35;99.23;101286.56;5073502;28;20041;-53
2023/08/16 06:07:49;;;;;;;0.60;0.60;;;;;;;16.51;98.04;101289.66;5071626;28;20040;-53
2023/08/16 06:10:15;;;;;;;0.70;0.40;;;;;;;16.43;97.75;101289.97;5071838;28;20029;-54
2023/08/16 06:12:41;;;;;;;0.82;0.50;;;;;;;16.45;97.55;101291.41;5073488;28;20489;-51
2023/08/16 06:15:11;;;;;;;1.30;0.50;;;;;;;16.48;97.60;101282.81;5072600;28;20227;-54
2023/08/16 06:17:38;;;;;;;1.77;0.60;;;;;;;16.39;97.87;101284.25;5073062;28;20016;-54
2023/08/16 06:20:09;;;;;;;0.95;0.50;;;;;;;16.35;98.11;101277.66;5067255;28;20501;-55
2023/08/16 06:22:37;;;;;;;1.38;0.52;;;;;;;16.22;98.71;101267.91;5073247;28;20489;-53
2023/08/16 06:25:08;;;;;;;2.50;0.82;;;;;;;16.23;99.07;101277.63;5070791;28;20486;-53
2023/08/16 06:27:34;;;;;;;1.10;1.00;;;;;;;16.17;99.30;101269.66;5073131;28;20040;-51
2023/08/16 06:30:02;;;;;;;1.90;1.02;;;;;;;16.21;99.86;101266.25;5080155;28;20020;-53
2023/08/16 06:32:28;;;;;;;0.82;0.80;;;;;;;16.17;99.97;101256.16;5083565;28;20463;-52
2023/08/16 06:34:54;;;;;;;1.20;0.77;;;;;;;16.17;99.60;101265.06;5073194;28;20419;-53
2023/08/16 06:37:21;;;;;;;0.82;0.70;;;;;;;16.08;100.00;101264.56;5070859;28;20031;-54
2023/08/16 06:39:48;;;;;;;0.70;0.70;;;;;;;16.13;100.00;101260.34;5065876;28;20025;-53
2023/08/16 06:42:14;;;;;;;0.90;0.85;;;;;;;16.10;100.00;101270.59;5065059;28;20080;-52
2023/08/16 06:44:40;;;;;;;0.88;0.80;;;;;;;16.00;100.00;101264.09;5066910;28;20388;-53
2023/08/16 06:47:06;;;;;;;2.15;0.90;;;;;;;16.04;100.00;101262.56;5071265;28;20098;-53
2023/08/16 06:49:33;;;;;;;1.20;1.10;;;;;;;16.01;100.00;101266.56;5072605;28;20038;-54
2023/08/16 06:51:59;;;;;;;1.13;1.02;;;;;;;16.00;100.00;101266.81;5072613;28;20024;-53
2023/08/16 06:54:26;;;;;;;2.15;1.08;;;;;;;15.96;100.00;101262.91;5072586;28;20056;-53
2023/08/16 06:56:57;;;;;;;3.33;1.85;;;;;;;15.87;100.00;101265.09;5064478;28;20476;-54
2023/08/16 06:59:24;;;;;;;1.52;0.90;;;;;;;15.81;100.00;101266.84;5072288;28;20051;-53
2023/08/16 07:01:51;;;;;;;1.35;1.08;;;;;;;15.86;100.00;101265.34;5072212;28;20039;-53
2023/08/16 07:04:17;;;;;;;2.42;0.90;;;;;;;15.74;100.00;101268.81;5072254;28;20394;-54
2023/08/16 07:06:43;;;;;;;1.13;1.02;;;;;;;15.76;100.00;101261.31;5064081;28;20153;-54
2023/08/16 07:09:10;;;;;;;1.40;1.13;;;;;;;15.73;100.00;101252.88;5064469;28;20494;-53
2023/08/16 07:11:36;;;;;;;1.70;1.00;;;;;;;15.64;100.00;101251.53;5080991;28;20493;-54
2023/08/16 07:14:03;;;;;;;1.50;0.77;;;;;;;15.82;100.00;101248.78;5078638;28;20031;-52
2023/08/16 07:16:31;;;;;;;0.93;0.93;;;;;;;15.78;100.00;101258.41;5073006;28;20051;-53
2023/08/16 07:18:57;;;;;;;0.55;0.50;;;;;;;15.82;100.00;101255.03;5072107;28;20032;-53
2023/08/16 07:21:23;;;;;;;0.98;0.75;;;;;;;15.82;100.00;101256.88;5072096;28;20033;-53
2023/08/16 07:23:50;;;;;;;0.98;0.50;;;;;;;15.93;100.00;101258.78;5072205;28;20029;-54
2023/08/16 07:26:16;;;;;;;0.40;0.40;;;;;;;15.89;100.00;101254.09;5078473;28;20042;-53
2023/08/16 07:28:42;;;;;;;0.40;0.40;;;;;;;15.91;100.00;101260.91;5071959;28;20504;-52
2023/08/16 07:31:08;;;;;;;0.70;0.50;;;;;;;15.89;100.00;101259.50;5071897;28;20173;-53
2023/08/16 07:33:35;;;;;;;1.20;0.80;;;;;;;15.94;100.00;101255.06;5071743;28;20026;-54
2023/08/16 07:36:02;;;;;;;0.65;0.50;;;;;;;15.88;100.00;101261.38;5071934;28;20036;-54
2023/08/16 07:38:29;;;;;;;0.65;0.60;;;;;;;15.85;100.00;101264.53;5071851;28;20040;-52
2023/08/16 07:40:55;;;;;;;1.42;0.80;;;;;;;15.84;100.00;101262.88;5058615;28;20033;-52
2023/08/16 07:43:22;;;;;;;0.90;0.70;;;;;;;15.78;100.00;101253.00;5071671;28;20036;-54
2023/08/16 07:45:52;;;;;;;1.23;0.90;;;;;;;15.75;100.00;101256.16;5072270;28;20036;-54
2023/08/16 07:48:18;;;;;;;1.38;0.98;;;;;;;15.74;100.00;101259.91;5057704;28;20474;-54
2023/08/16 07:50:45;;;;;;;1.33;0.90;;;;;;;15.80;100.00;101250.88;5059408;28;20025;-53
2023/08/16 07:53:12;;;;;;;2.08;1.48;;;;;;;15.76;100.00;101253.22;5071412;28;20075;-54
2023/08/16 07:55:38;;;;;;;3.15;1.50;;;;;;;15.66;100.00;101244.06;5061385;28;20032;-54
2023/08/16 07:58:05;;;;;;;1.65;1.52;;;;;;;15.78;100.00;101250.31;5071536;28;20509;-52
2023/08/16 08:00:32;;;;;;;1.80;1.65;;;;;;;15.74;100.00;101246.41;5068996;28;20048;-53
2023/08/16 08:02:59;;;;;;;1.50;1.20;;;;;;;15.81;100.00;101257.94;5056562;28;20123;-53
2023/08/16 08:05:25;;;;;;;1.67;1.02;;;;;;;15.78;100.00;101253.84;5060476;28;20035;-51
2023/08/16 08:07:55;;;;;;;1.48;1.13;;;;;;;15.77;100.00;101254.06;5066468;28;20016;-50
2023/08/16 08:10:22;;;;;;;1.17;1.00;;;;;;;15.77;100.00;101262.16;5060082;28;20025;-52
2023/08/16 08:12:48;;;;;;;1.45;0.85;;;;;;;15.86;100.00;101257.25;5067134;28;20094;-52
2023/08/16 08:15:15;;;;;;;1.52;0.90;;;;;;;15.82;100.00;101264.97;5064610;28;20051;-54
2023/08/16 08:17:41;;;;;;;0.70;0.63;;;;;;;15.92;100.00;101262.53;5071325;28;20035;-53
2023/08/16 08:20:08;;;;;;;1.05;0.75;;;;;;;15.88;100.00;101263.22;5071552;28;20017;-54
2023/08/16 08:22:34;;;;;;;0.65;0.50;;;;;;;16.03;100.00;101271.72;5070573;28;20567;-53
2023/08/16 08:25:01;;;;;;;0.98;0.60;;;;;;;15.81;100.00;101269.53;5060011;28;20040;-52
2023/08/16 08:27:27;;;;;;;0.95;0.68;;;;;;;15.95;100.00;101272.06;5060359;28;20033;-53
2023/08/16 08:29:54;;;;;;;1.02;0.60;;;;;;;16.01;100.00;101274.66;5053317;28;20047;-53
2023/08/16 08:32:20;;;;;;;1.00;0.80;;;;;;;15.96;100.00;101281.81;5058488;28;20539;-54
2023/08/16 08:34:46;;;;;;;1.40;0.90;;;;;;;16.07;99.93;101279.13;5061321;28;20027;-54
2023/08/16 08:37:13;;;;;;;2.08;1.10;;;;;;;16.14;99.13;101276.31;5066476;28;20028;-53
2023/08/16 08:39:39;;;;;;;1.52;0.95;;;;;;;16.00;100.00;101272.19;5070623;28;20044;-53
2023/08/16 08:42:09;;;;;;;1.40;1.00;;;;;;;16.06;99.76;101271.28;5070461;28;20563;-55
2023/08/16 08:44:38;;;;;;;3.55;2.70;;;;;;;16.00;100.00;101267.63;5071148;28;20033;-52
2023/08/16 08:47:07;;;;;;;4.75;2.70;;;;;;;16.06;99.88;101268.56;5059939;28;20043;-53
2023/08/16 08:49:37;;;;;;;4.50;3.17;;;;;;;16.02;100.00;101261.97;5063684;28;20036;-52
2023/08/16 08:52:04;;;;;;;4.40;3.22;;;;;;;16.05;100.00;101265.06;5058888;28;20440;-52
2023/08/16 08:54:31;;;;;;;3.33;2.75;;;;;;;15.92;100.00;101259.84;5070901;28;20017;-53
2023/08/16 08:57:04;;;;;;;3.97;2.80;;;;;;;15.90;100.00;101253.84;5062282;28;20104;-52
2023/08/16 08:59:34;;;;;;;4.32;2.75;;;;;;;15.84;100.00;101257.47;5070507;28;20125;-53
2023/08/16 09:02:01;;;;;;;3.10;2.53;;;;;;;15.80;100.00;101249.00;5070684;28;20493;-54
2023/08/16 09:04:30;;;;;;;3.20;2.55;;;;;;;15.87;100.00;101246.22;5071049;28;20032;-53
2023/08/16 09:06:59;;;;;;;5.38;3.55;;;;;;;15.79;100.00;101241.16;5071052;28;20036;-54
2023/08/16 09:09:26;;;;;;;3.72;3.28;;;;;;;15.94;100.00;101238.84;5063445;28;20039;-53
2023/08/16 09:11:52;;;;;;;4.07;3.20;;;;;;;15.93;100.00;101239.06;5070852;28;20425;-53
2023/08/16 09:14:19;;;;;;;3.00;2.70;;;;;;;15.99;100.00;101243.53;5073565;28;20036;-54
2023/08/16 09:16:45;;;;;;;3.50;3.13;;;;;;;15.79;100.00;101238.44;5070927;28;20544;-53
2023/08/16 09:19:15;;;;;;;3.97;3.05;;;;;;;15.76;100.00;101239.72;5065094;28;20711;-53
2023/08/16 09:21:44;;;;;;;3.92;3.30;;;;;;;15.77;100.00;101237.88;5062286;28;20032;-54
2023/08/16 09:24:11;;;;;;;3.00;2.38;;;;;;;15.83;100.00;101231.56;5068049;28;20386;-54
2023/08/16 09:26:38;;;;;;;2.53;2.30;;;;;;;15.84;100.00;101233.19;5066072;28;20020;-51
2023/08/16 09:29:05;;;;;;;2.10;1.90;;;;;;;15.77;100.00;101225.19;5074559;28;20060;-54
2023/08/16 09:31:39;;;;;;;2.45;2.03;;;;;;;15.75;100.00;101240.78;5074162;28;20037;-55
2023/08/16 09:34:06;;;;;;;2.72;2.17;;;;;;;15.81;100.00;101236.34;5074330;28;20367;-53
2023/08/16 09:36:37;;;;;;;2.30;1.90;;;;;;;15.84;100.00;101238.59;5074759;28;20389;-53
2023/08/16 09:39:08;;;;;;;2.83;1.90;;;;;;;15.88;100.00;101231.69;5058461;28;20386;-54
2023/08/16 09:41:36;;;;;;;1.65;1.48;;;;;;;15.86;100.00;101231.06;5074258;28;20064;-53
2023/08/16 09:44:07;;;;;;;2.13;1.40;;;;;;;15.90;100.00;101232.25;5074180;28;20035;-54
2023/08/16 09:46:40;;;;;;;1.30;1.20;;;;;;;15.89;100.00;101229.81;5074172;28;20016;-55
2023/08/16 09:49:12;;;;;;;3.05;1.40;;;;;;;15.75;100.00;101232.69;5072791;28;20496;-51
2023/08/16 09:51:41;;;;;;;1.58;1.17;;;;;;;15.62;100.00;101222.06;5074121;28;20466;-54
2023/08/16 09:54:16;;;;;;;0.90;0.73;;;;;;;15.86;100.00;101222.97;5073862;28;20383;-51
2023/08/16 09:56:44;;;;;;;1.30;0.90;;;;;;;15.88;100.00;101223.59;5074376;28;20490;-53
2023/08/16 09:59:12;;;;;;;1.30;1.20;;;;;;;16.02;100.00;101232.28;5073542;28;20099;-53
2023/08/16 10:01:40;;;;;;;0.60;0.55;;;;;;;15.99;100.00;101235.44;5073444;28;20024;-53
2023/08/16 10:04:07;;;;;;;1.15;0.73;;;;;;;15.90;100.00;101226.03;5073444;28;20056;-53
2023/08/16 10:06:35;;;;;;;1.15;0.75;;;;;;;16.07;100.00;101229.72;5070644;28;20116;-54
2023/08/16 10:09:04;;;;;;;0.80;0.45;;;;;;;16.05;100.00;101232.66;5061105;28;20070;-53
2023/08/16 10:11:33;;;;;;;0.35;0.35;;;;;;;15.73;100.00;101228.59;5072916;28;20025;-53
2023/08/16 10:14:02;;;;;;;1.08;0.32;;;;;;;15.73;100.00;101229.41;5061612;28;20028;-53
2023/08/16 10:16:30;;;;;;;0.30;0.30;;;;;;;15.86;100.00;101233.78;5066275;28;20089;-54
2023/08/16 10:19:01;;;;;;;0.20;0.20;;;;;;;15.89;100.00;101230.63;5066775;28;20433;-54
2023/08/16 10:21:29;;;;;;;0.13;0.13;;;;;;;15.90;100.00;101237.66;5057418;28;20039;-53
2023/08/16 10:23:56;;;;;;;1.13;0.32;;;;;;;15.98;100.00;101229.22;5073279;28;20032;-53
2023/08/16 10:26:28;;;;;;;1.17;0.95;;;;;;;15.93;100.00;101226.38;5039563;28;20028;-52
2023/08/16 10:29:04;;;;;;;0.85;0.68;;;;;;;15.93;100.00;101223.69;5056541;28;20487;-53
2023/08/16 10:31:36;;;;;;;1.63;0.55;;;;;;;15.98;100.00;101231.09;5057883;28;20040;-53
2023/08/16 10:34:07;;;;;;;0.60;0.50;;;;;;;15.98;100.00;101240.00;5070130;28;20115;-53
2023/08/16 10:36:33;;;;;;;0.70;0.70;;;;;;;15.91;100.00;101228.50;5073295;28;20025;-53
2023/08/16 10:39:00;;;;;;;0.50;0.45;;;;;;;15.91;100.00;101233.09;5072673;28;20457;-53
2023/08/16 10:41:26;;;;;;;0.93;0.73;;;;;;;15.87;100.00;101229.19;5073368;28;20028;-54
2023/08/16 10:43:54;;;;;;;0.40;0.40;;;;;;;15.89;100.00;101227.94;5057728;28;20092;-53
2023/08/16 10:46:35;;;;;;;1.38;0.47;;;;;;;15.83;100.00;101221.56;5063718;28;20036;-53
2023/08/16 10:49:03;;;;;;;0.77;0.40;;;;;;;15.93;100.00;101217.47;5069748;28;20036;-53
2023/08/16 10:51:30;;;;;;;0.63;0.50;;;;;;;15.85;100.00;101215.94;5072572;28;20463;-53
2023/08/16 10:53:57;;;;;;;0.68;0.52;;;;;;;15.83;100.00;101226.16;5073063;28;20474;-53
2023/08/16 10:56:24;;;;;;;1.52;0.35;;;;;;;15.82;100.00;101221.78;5065662;28;20439;-53
2023/08/16 10:58:52;;;;;;;2.03;0.40;;;;;;;15.72;100.00;101224.25;5052812;28;20518;-53
2023/08/16 11:01:20;;;;;;;1.40;0.30;;;;;;;15.68;100.00;101220.34;5070432;28;20041;-53
2023/08/16 11:03:49;;;;;;;0.60;0.50;;;;;;;15.70;100.00;101226.34;5068680;28;20016;-55
2023/08/16 11:06:19;;;;;;;0.82;0.28;;;;;;;15.81;100.00;101220.97;5072657;28;20020;-54
2023/08/16 11:08:47;;;;;;;0.30;0.30;;;;;;;15.77;100.00;101221.69;5072254;28;20466;-54
2023/08/16 11:11:14;;;;;;;0.30;0.30;;;;;;;15.86;100.00;101217.56;5072214;28;20546;-53
2023/08/16 11:13:41;;;;;;;0.73;0.43;;;;;;;15.72;100.00;101216.16;5070081;28;20098;-52
2023/08/16 11:16:09;;;;;;;0.40;0.30;;;;;;;15.55;100.00;101216.78;5065797;28;20056;-54
2023/08/16 11:18:39;;;;;;;0.40;0.40;;;;;;;15.67;100.00;101218.72;5071593;28;20075;-54
2023/08/16 11:21:08;;;;;;;1.10;0.65;;;;;;;15.61;100.00;101216.91;5050827;28;20079;-54
2023/08/16 11:23:40;;;;;;;0.90;0.60;;;;;;;15.65;100.00;101216.22;5067095;28;20029;-55